sensor_id;sensor_type;location;lat;lon;timestamp;P1;durP1;ratioP1;P2;durP2;ratioP2
52534;SDS011;38443;53.164;5.802;2022-09-13T00:01:05;43.05;;;23.23;;
52534;SDS011;38443;53.164;5.802;2022-09-13T00:03:31;41.88;;;25.33;;
52534;SDS011;38443;53.164;5.802;2022-09-13T00:05:57;42.78;;;26.00;;
52534;SDS011;38443;53.164;5.802;2022-09-13T00:08:23;34.78;;;23.10;;
52534;SDS011;38443;53.164;5.802;2022-09-13T00:10:49;36.53;;;21.65;;
52534;SDS011;38443;53.164;5.802;2022-09-13T00:13:15;32.25;;;19.65;;
52534;SDS011;38443;53.164;5.802;2022-09-13T00:15:42;32.75;;;18.13;;
52534;SDS011;38443;53.164;5.802;2022-09-13T00:18:08;28.60;;;17.85;;
52534;SDS011;38443;53.164;5.802;2022-09-13T00:20:34;21.95;;;17.00;;
52534;SDS011;38443;53.164;5.802;2022-09-13T00:22:59;22.40;;;16.45;;
52534;SDS011;38443;53.164;5.802;2022-09-13T00:25:24;22.95;;;16.33;;
52534;SDS011;38443;53.164;5.802;2022-09-13T00:27:50;23.83;;;15.38;;
52534;SDS011;38443;53.164;5.802;2022-09-13T00:30:15;23.98;;;15.35;;
52534;SDS011;38443;53.164;5.802;2022-09-13T00:32:40;20.08;;;15.27;;
52534;SDS011;38443;53.164;5.802;2022-09-13T00:35:06;21.27;;;15.43;;
52534;SDS011;38443;53.164;5.802;2022-09-13T00:37:32;24.88;;;16.67;;
52534;SDS011;38443;53.164;5.802;2022-09-13T00:39:58;25.10;;;15.73;;
52534;SDS011;38443;53.164;5.802;2022-09-13T00:42:25;22.35;;;16.25;;
52534;SDS011;38443;53.164;5.802;2022-09-13T00:48:05;23.65;;;16.13;;
52534;SDS011;38443;53.164;5.802;2022-09-13T00:50:42;23.02;;;16.70;;
52534;SDS011;38443;53.164;5.802;2022-09-13T00:55:41;25.98;;;17.42;;
52534;SDS011;38443;53.164;5.802;2022-09-13T00:58:18;27.67;;;17.10;;
52534;SDS011;38443;53.164;5.802;2022-09-13T01:00:48;25.73;;;17.40;;
52534;SDS011;38443;53.164;5.802;2022-09-13T01:03:14;23.65;;;16.27;;
52534;SDS011;38443;53.164;5.802;2022-09-13T01:05:43;22.23;;;16.05;;
52534;SDS011;38443;53.164;5.802;2022-09-13T01:08:15;23.10;;;16.55;;
52534;SDS011;38443;53.164;5.802;2022-09-13T01:10:46;27.38;;;17.08;;
52534;SDS011;38443;53.164;5.802;2022-09-13T01:13:22;25.33;;;16.42;;
52534;SDS011;38443;53.164;5.802;2022-09-13T01:15:50;22.42;;;16.77;;
52534;SDS011;38443;53.164;5.802;2022-09-13T01:18:16;25.95;;;15.90;;
52534;SDS011;38443;53.164;5.802;2022-09-13T01:20:49;23.38;;;16.55;;
52534;SDS011;38443;53.164;5.802;2022-09-13T01:29:46;23.08;;;16.40;;
52534;SDS011;38443;53.164;5.802;2022-09-13T01:32:22;24.83;;;14.68;;
52534;SDS011;38443;53.164;5.802;2022-09-13T01:46:29;23.45;;;15.77;;
52534;SDS011;38443;53.164;5.802;2022-09-13T01:49:11;20.23;;;14.77;;
52534;SDS011;38443;53.164;5.802;2022-09-13T01:51:52;23.25;;;16.48;;
52534;SDS011;38443;53.164;5.802;2022-09-13T01:54:33;21.05;;;14.43;;
52534;SDS011;38443;53.164;5.802;2022-09-13T01:57:15;25.48;;;15.68;;
52534;SDS011;38443;53.164;5.802;2022-09-13T02:05:46;22.60;;;16.48;;
52534;SDS011;38443;53.164;5.802;2022-09-13T02:08:13;23.13;;;15.85;;
52534;SDS011;38443;53.164;5.802;2022-09-13T02:11:30;20.80;;;15.77;;
52534;SDS011;38443;53.164;5.802;2022-09-13T02:13:37;28.58;;;16.40;;
52534;SDS011;38443;53.164;5.802;2022-09-13T02:16:12;26.00;;;15.70;;
52534;SDS011;38443;53.164;5.802;2022-09-13T02:18:43;30.70;;;17.20;;
52534;SDS011;38443;53.164;5.802;2022-09-13T02:21:21;26.05;;;17.08;;
52534;SDS011;38443;53.164;5.802;2022-09-13T02:23:57;18.83;;;15.10;;
52534;SDS011;38443;53.164;5.802;2022-09-13T02:26:30;12.13;;;7.25;;
52534;SDS011;38443;53.164;5.802;2022-09-13T02:29:00;6.18;;;3.80;;
52534;SDS011;38443;53.164;5.802;2022-09-13T02:35:03;2.47;;;1.88;;
52534;SDS011;38443;53.164;5.802;2022-09-13T02:37:39;4.28;;;1.60;;
52534;SDS011;38443;53.164;5.802;2022-09-13T02:40:08;2.70;;;1.65;;
52534;SDS011;38443;53.164;5.802;2022-09-13T02:42:42;4.53;;;2.70;;
52534;SDS011;38443;53.164;5.802;2022-09-13T02:45:11;5.43;;;2.00;;
52534;SDS011;38443;53.164;5.802;2022-09-13T02:47:58;3.15;;;1.67;;
52534;SDS011;38443;53.164;5.802;2022-09-13T02:51:01;6.18;;;2.20;;
52534;SDS011;38443;53.164;5.802;2022-09-13T02:53:54;3.65;;;1.75;;
52534;SDS011;38443;53.164;5.802;2022-09-13T02:56:33;8.32;;;2.40;;
52534;SDS011;38443;53.164;5.802;2022-09-13T02:59:18;6.18;;;2.10;;
52534;SDS011;38443;53.164;5.802;2022-09-13T03:01:49;3.75;;;1.95;;
52534;SDS011;38443;53.164;5.802;2022-09-13T03:04:21;5.13;;;1.85;;
52534;SDS011;38443;53.164;5.802;2022-09-13T03:06:47;3.15;;;1.77;;
52534;SDS011;38443;53.164;5.802;2022-09-13T03:09:13;5.82;;;2.70;;
52534;SDS011;38443;53.164;5.802;2022-09-13T03:11:42;4.07;;;2.65;;
52534;SDS011;38443;53.164;5.802;2022-09-13T03:14:55;5.45;;;2.08;;
52534;SDS011;38443;53.164;5.802;2022-09-13T03:17:11;9.18;;;2.28;;
52534;SDS011;38443;53.164;5.802;2022-09-13T03:19:55;6.95;;;2.53;;
52534;SDS011;38443;53.164;5.802;2022-09-13T03:25:15;5.90;;;2.72;;
52534;SDS011;38443;53.164;5.802;2022-09-13T03:28:19;7.10;;;2.75;;
52534;SDS011;38443;53.164;5.802;2022-09-13T03:30:48;5.70;;;2.88;;
52534;SDS011;38443;53.164;5.802;2022-09-13T03:36:10;15.68;;;3.58;;
52534;SDS011;38443;53.164;5.802;2022-09-13T03:38:41;5.38;;;3.10;;
52534;SDS011;38443;53.164;5.802;2022-09-13T03:44:15;4.05;;;3.45;;
52534;SDS011;38443;53.164;5.802;2022-09-13T03:46:44;12.35;;;3.05;;
52534;SDS011;38443;53.164;5.802;2022-09-13T03:49:13;4.65;;;2.40;;
52534;SDS011;38443;53.164;5.802;2022-09-13T03:51:42;8.38;;;2.40;;
52534;SDS011;38443;53.164;5.802;2022-09-13T03:54:11;5.43;;;2.63;;
52534;SDS011;38443;53.164;5.802;2022-09-13T03:56:40;4.43;;;2.20;;
52534;SDS011;38443;53.164;5.802;2022-09-13T03:59:06;4.53;;;2.40;;
52534;SDS011;38443;53.164;5.802;2022-09-13T04:01:31;8.23;;;3.70;;
52534;SDS011;38443;53.164;5.802;2022-09-13T04:03:57;4.28;;;2.75;;
52534;SDS011;38443;53.164;5.802;2022-09-13T04:06:23;7.45;;;4.55;;
52534;SDS011;38443;53.164;5.802;2022-09-13T04:08:48;6.28;;;3.63;;
52534;SDS011;38443;53.164;5.802;2022-09-13T04:11:14;17.73;;;5.13;;
52534;SDS011;38443;53.164;5.802;2022-09-13T04:13:39;7.68;;;3.60;;
52534;SDS011;38443;53.164;5.802;2022-09-13T04:16:05;5.30;;;3.17;;
52534;SDS011;38443;53.164;5.802;2022-09-13T04:18:31;4.70;;;3.13;;
52534;SDS011;38443;53.164;5.802;2022-09-13T04:20:58;4.40;;;3.22;;
52534;SDS011;38443;53.164;5.802;2022-09-13T04:23:25;7.00;;;3.50;;
52534;SDS011;38443;53.164;5.802;2022-09-13T04:25:51;4.10;;;3.00;;
52534;SDS011;38443;53.164;5.802;2022-09-13T04:28:17;7.88;;;3.83;;
52534;SDS011;38443;53.164;5.802;2022-09-13T04:30:44;7.10;;;4.88;;
52534;SDS011;38443;53.164;5.802;2022-09-13T04:33:13;7.72;;;4.47;;
52534;SDS011;38443;53.164;5.802;2022-09-13T04:35:41;8.93;;;4.05;;
52534;SDS011;38443;53.164;5.802;2022-09-13T04:38:07;6.10;;;4.03;;
52534;SDS011;38443;53.164;5.802;2022-09-13T04:40:33;9.45;;;4.38;;
52534;SDS011;38443;53.164;5.802;2022-09-13T04:42:59;8.88;;;3.70;;
52534;SDS011;38443;53.164;5.802;2022-09-13T04:45:25;7.35;;;4.03;;
52534;SDS011;38443;53.164;5.802;2022-09-13T04:47:53;7.85;;;4.45;;
52534;SDS011;38443;53.164;5.802;2022-09-13T04:50:20;7.70;;;4.25;;
52534;SDS011;38443;53.164;5.802;2022-09-13T04:52:46;8.48;;;3.90;;
52534;SDS011;38443;53.164;5.802;2022-09-13T04:55:12;13.18;;;5.22;;
52534;SDS011;38443;53.164;5.802;2022-09-13T04:57:38;5.18;;;3.88;;
52534;SDS011;38443;53.164;5.802;2022-09-13T05:00:04;5.82;;;3.75;;
52534;SDS011;38443;53.164;5.802;2022-09-13T05:02:30;6.25;;;3.88;;
52534;SDS011;38443;53.164;5.802;2022-09-13T05:04:56;7.18;;;3.92;;
52534;SDS011;38443;53.164;5.802;2022-09-13T05:07:21;6.70;;;4.18;;
52534;SDS011;38443;53.164;5.802;2022-09-13T05:09:46;5.50;;;3.38;;
52534;SDS011;38443;53.164;5.802;2022-09-13T05:12:12;11.65;;;4.32;;
52534;SDS011;38443;53.164;5.802;2022-09-13T05:14:37;5.25;;;3.80;;
52534;SDS011;38443;53.164;5.802;2022-09-13T05:17:03;7.22;;;4.28;;
52534;SDS011;38443;53.164;5.802;2022-09-13T05:19:28;6.57;;;4.35;;
52534;SDS011;38443;53.164;5.802;2022-09-13T05:21:53;5.55;;;3.95;;
52534;SDS011;38443;53.164;5.802;2022-09-13T05:24:19;12.30;;;5.28;;
52534;SDS011;38443;53.164;5.802;2022-09-13T05:26:44;7.38;;;3.90;;
52534;SDS011;38443;53.164;5.802;2022-09-13T05:29:09;6.47;;;3.80;;
52534;SDS011;38443;53.164;5.802;2022-09-13T05:31:36;6.93;;;3.55;;
52534;SDS011;38443;53.164;5.802;2022-09-13T05:34:05;7.57;;;3.53;;
52534;SDS011;38443;53.164;5.802;2022-09-13T05:36:35;6.07;;;3.00;;
52534;SDS011;38443;53.164;5.802;2022-09-13T05:39:02;4.97;;;2.88;;
52534;SDS011;38443;53.164;5.802;2022-09-13T05:41:28;9.50;;;2.72;;
52534;SDS011;38443;53.164;5.802;2022-09-13T05:43:53;6.38;;;2.60;;
52534;SDS011;38443;53.164;5.802;2022-09-13T05:46:19;11.60;;;3.47;;
52534;SDS011;38443;53.164;5.802;2022-09-13T05:48:48;11.20;;;3.40;;
52534;SDS011;38443;53.164;5.802;2022-09-13T05:51:20;5.80;;;2.42;;
52534;SDS011;38443;53.164;5.802;2022-09-13T05:53:47;3.58;;;2.38;;
52534;SDS011;38443;53.164;5.802;2022-09-13T05:56:15;7.90;;;3.08;;
52534;SDS011;38443;53.164;5.802;2022-09-13T05:58:43;8.38;;;2.50;;
52534;SDS011;38443;53.164;5.802;2022-09-13T06:01:10;8.05;;;3.33;;
52534;SDS011;38443;53.164;5.802;2022-09-13T06:03:37;5.75;;;2.05;;
52534;SDS011;38443;53.164;5.802;2022-09-13T06:06:03;4.88;;;2.42;;
52534;SDS011;38443;53.164;5.802;2022-09-13T06:08:30;16.77;;;2.50;;
52534;SDS011;38443;53.164;5.802;2022-09-13T06:10:57;6.65;;;2.60;;
52534;SDS011;38443;53.164;5.802;2022-09-13T06:13:30;7.88;;;3.08;;
52534;SDS011;38443;53.164;5.802;2022-09-13T06:15:57;6.63;;;2.70;;
52534;SDS011;38443;53.164;5.802;2022-09-13T06:18:24;7.45;;;1.98;;
52534;SDS011;38443;53.164;5.802;2022-09-13T06:20:51;6.38;;;2.35;;
52534;SDS011;38443;53.164;5.802;2022-09-13T06:23:23;7.80;;;2.10;;
52534;SDS011;38443;53.164;5.802;2022-09-13T06:25:48;4.75;;;2.28;;
52534;SDS011;38443;53.164;5.802;2022-09-13T06:28:14;6.53;;;2.10;;
52534;SDS011;38443;53.164;5.802;2022-09-13T06:30:39;6.22;;;2.85;;
52534;SDS011;38443;53.164;5.802;2022-09-13T06:33:04;4.63;;;2.03;;
52534;SDS011;38443;53.164;5.802;2022-09-13T06:35:30;4.85;;;2.28;;
52534;SDS011;38443;53.164;5.802;2022-09-13T06:37:56;6.80;;;2.10;;
52534;SDS011;38443;53.164;5.802;2022-09-13T06:40:22;4.95;;;1.88;;
52534;SDS011;38443;53.164;5.802;2022-09-13T06:42:48;4.63;;;2.03;;
52534;SDS011;38443;53.164;5.802;2022-09-13T06:45:13;3.95;;;1.90;;
52534;SDS011;38443;53.164;5.802;2022-09-13T06:47:38;5.35;;;2.20;;
52534;SDS011;38443;53.164;5.802;2022-09-13T06:50:04;3.08;;;2.00;;
52534;SDS011;38443;53.164;5.802;2022-09-13T06:52:31;3.55;;;1.80;;
52534;SDS011;38443;53.164;5.802;2022-09-13T06:54:56;3.58;;;1.77;;
52534;SDS011;38443;53.164;5.802;2022-09-13T06:57:22;3.97;;;1.90;;
52534;SDS011;38443;53.164;5.802;2022-09-13T06:59:47;8.30;;;2.03;;
52534;SDS011;38443;53.164;5.802;2022-09-13T07:02:12;4.60;;;1.98;;
52534;SDS011;38443;53.164;5.802;2022-09-13T07:04:39;4.72;;;1.88;;
52534;SDS011;38443;53.164;5.802;2022-09-13T07:07:04;2.88;;;1.67;;
52534;SDS011;38443;53.164;5.802;2022-09-13T07:09:29;3.28;;;1.40;;
52534;SDS011;38443;53.164;5.802;2022-09-13T07:11:57;3.40;;;1.40;;
52534;SDS011;38443;53.164;5.802;2022-09-13T07:14:23;3.72;;;1.52;;
52534;SDS011;38443;53.164;5.802;2022-09-13T07:16:53;2.20;;;1.60;;
52534;SDS011;38443;53.164;5.802;2022-09-13T07:19:19;4.13;;;1.40;;
52534;SDS011;38443;53.164;5.802;2022-09-13T07:21:47;3.92;;;1.27;;
52534;SDS011;38443;53.164;5.802;2022-09-13T07:24:14;3.97;;;1.80;;
52534;SDS011;38443;53.164;5.802;2022-09-13T07:26:40;2.17;;;1.52;;
52534;SDS011;38443;53.164;5.802;2022-09-13T07:29:06;2.15;;;1.48;;
52534;SDS011;38443;53.164;5.802;2022-09-13T07:31:36;2.22;;;1.65;;
52534;SDS011;38443;53.164;5.802;2022-09-13T07:34:06;4.28;;;1.52;;
52534;SDS011;38443;53.164;5.802;2022-09-13T07:36:36;3.00;;;1.50;;
52534;SDS011;38443;53.164;5.802;2022-09-13T07:39:02;2.55;;;1.45;;
52534;SDS011;38443;53.164;5.802;2022-09-13T07:41:29;2.30;;;1.30;;
52534;SDS011;38443;53.164;5.802;2022-09-13T07:43:55;3.78;;;1.50;;
52534;SDS011;38443;53.164;5.802;2022-09-13T07:46:23;3.03;;;1.10;;
52534;SDS011;38443;53.164;5.802;2022-09-13T07:48:53;3.80;;;1.30;;
52534;SDS011;38443;53.164;5.802;2022-09-13T07:51:21;7.88;;;1.70;;
52534;SDS011;38443;53.164;5.802;2022-09-13T07:53:49;2.80;;;1.40;;
52534;SDS011;38443;53.164;5.802;2022-09-13T07:56:19;2.20;;;1.25;;
52534;SDS011;38443;53.164;5.802;2022-09-13T07:58:47;3.15;;;1.63;;
52534;SDS011;38443;53.164;5.802;2022-09-13T08:03:54;5.90;;;1.48;;
52534;SDS011;38443;53.164;5.802;2022-09-13T08:06:19;5.07;;;1.75;;
52534;SDS011;38443;53.164;5.802;2022-09-13T08:08:45;4.32;;;1.63;;
52534;SDS011;38443;53.164;5.802;2022-09-13T08:11:14;5.00;;;1.35;;
52534;SDS011;38443;53.164;5.802;2022-09-13T08:13:43;4.10;;;1.65;;
52534;SDS011;38443;53.164;5.802;2022-09-13T08:16:09;3.63;;;1.80;;
52534;SDS011;38443;53.164;5.802;2022-09-13T08:18:34;2.67;;;1.40;;
52534;SDS011;38443;53.164;5.802;2022-09-13T08:21:00;6.90;;;1.60;;
52534;SDS011;38443;53.164;5.802;2022-09-13T08:23:26;3.38;;;1.55;;
52534;SDS011;38443;53.164;5.802;2022-09-13T08:25:52;5.30;;;1.30;;
52534;SDS011;38443;53.164;5.802;2022-09-13T08:28:18;3.55;;;1.50;;
52534;SDS011;38443;53.164;5.802;2022-09-13T08:30:49;3.40;;;1.30;;
52534;SDS011;38443;53.164;5.802;2022-09-13T08:33:14;5.20;;;1.30;;
52534;SDS011;38443;53.164;5.802;2022-09-13T08:35:40;2.88;;;1.40;;
52534;SDS011;38443;53.164;5.802;2022-09-13T08:38:13;4.85;;;1.75;;
52534;SDS011;38443;53.164;5.802;2022-09-13T08:40:39;2.08;;;1.13;;
52534;SDS011;38443;53.164;5.802;2022-09-13T08:45:57;8.00;;;2.47;;
52534;SDS011;38443;53.164;5.802;2022-09-13T08:48:33;2.72;;;1.45;;
52534;SDS011;38443;53.164;5.802;2022-09-13T08:51:04;4.80;;;1.55;;
52534;SDS011;38443;53.164;5.802;2022-09-13T08:53:34;6.13;;;1.60;;
52534;SDS011;38443;53.164;5.802;2022-09-13T08:56:15;3.42;;;1.13;;
52534;SDS011;38443;53.164;5.802;2022-09-13T09:01:44;7.90;;;1.73;;
52534;SDS011;38443;53.164;5.802;2022-09-13T09:07:34;5.88;;;1.42;;
52534;SDS011;38443;53.164;5.802;2022-09-13T09:09:53;3.97;;;1.45;;
52534;SDS011;38443;53.164;5.802;2022-09-13T09:15:21;6.03;;;1.50;;
52534;SDS011;38443;53.164;5.802;2022-09-13T09:17:49;4.35;;;1.75;;
52534;SDS011;38443;53.164;5.802;2022-09-13T09:20:25;4.57;;;1.73;;
52534;SDS011;38443;53.164;5.802;2022-09-13T09:22:52;5.10;;;1.38;;
52534;SDS011;38443;53.164;5.802;2022-09-13T09:25:19;3.80;;;1.60;;
52534;SDS011;38443;53.164;5.802;2022-09-13T09:27:51;5.05;;;1.55;;
52534;SDS011;38443;53.164;5.802;2022-09-13T09:30:18;3.00;;;1.20;;
52534;SDS011;38443;53.164;5.802;2022-09-13T09:32:51;5.30;;;1.42;;
52534;SDS011;38443;53.164;5.802;2022-09-13T09:37:45;4.50;;;2.30;;
52534;SDS011;38443;53.164;5.802;2022-09-13T09:40:21;6.78;;;1.70;;
52534;SDS011;38443;53.164;5.802;2022-09-13T09:42:47;5.40;;;1.52;;
52534;SDS011;38443;53.164;5.802;2022-09-13T09:47:52;3.47;;;1.23;;
52534;SDS011;38443;53.164;5.802;2022-09-13T09:50:38;5.38;;;1.50;;
52534;SDS011;38443;53.164;5.802;2022-09-13T09:53:18;2.38;;;1.05;;
52534;SDS011;38443;53.164;5.802;2022-09-13T09:58:55;2.83;;;1.50;;
52534;SDS011;38443;53.164;5.802;2022-09-13T10:01:25;4.22;;;1.40;;
52534;SDS011;38443;53.164;5.802;2022-09-13T10:06:40;5.18;;;1.65;;
52534;SDS011;38443;53.164;5.802;2022-09-13T10:09:14;3.53;;;1.35;;
52534;SDS011;38443;53.164;5.802;2022-09-13T10:11:45;5.57;;;1.48;;
52534;SDS011;38443;53.164;5.802;2022-09-13T10:14:28;2.53;;;1.67;;
52534;SDS011;38443;53.164;5.802;2022-09-13T10:17:01;3.60;;;1.50;;
52534;SDS011;38443;53.164;5.802;2022-09-13T10:19:28;6.10;;;1.65;;
52534;SDS011;38443;53.164;5.802;2022-09-13T10:22:09;5.90;;;1.50;;
52534;SDS011;38443;53.164;5.802;2022-09-13T10:24:36;4.63;;;1.33;;
52534;SDS011;38443;53.164;5.802;2022-09-13T10:27:01;3.22;;;1.58;;
52534;SDS011;38443;53.164;5.802;2022-09-13T10:29:28;9.65;;;1.85;;
52534;SDS011;38443;53.164;5.802;2022-09-13T10:31:55;7.25;;;1.67;;
52534;SDS011;38443;53.164;5.802;2022-09-13T10:34:29;3.78;;;1.70;;
52534;SDS011;38443;53.164;5.802;2022-09-13T10:39:51;2.67;;;1.17;;
52534;SDS011;38443;53.164;5.802;2022-09-13T10:42:21;3.30;;;1.40;;
52534;SDS011;38443;53.164;5.802;2022-09-13T10:45:11;4.28;;;1.23;;
52534;SDS011;38443;53.164;5.802;2022-09-13T10:47:45;5.65;;;1.70;;
52534;SDS011;38443;53.164;5.802;2022-09-13T10:50:22;2.70;;;1.10;;
52534;SDS011;38443;53.164;5.802;2022-09-13T10:52:54;2.15;;;1.20;;
52534;SDS011;38443;53.164;5.802;2022-09-13T10:55:33;3.15;;;1.20;;
52534;SDS011;38443;53.164;5.802;2022-09-13T11:00:53;4.60;;;1.30;;
52534;SDS011;38443;53.164;5.802;2022-09-13T11:03:36;5.03;;;2.03;;
52534;SDS011;38443;53.164;5.802;2022-09-13T11:14:33;6.03;;;1.50;;
52534;SDS011;38443;53.164;5.802;2022-09-13T11:20:17;3.80;;;1.50;;
52534;SDS011;38443;53.164;5.802;2022-09-13T11:25:47;4.75;;;1.67;;
52534;SDS011;38443;53.164;5.802;2022-09-13T11:34:20;6.72;;;2.17;;
52534;SDS011;38443;53.164;5.802;2022-09-13T11:48:02;6.47;;;1.65;;
52534;SDS011;38443;53.164;5.802;2022-09-13T11:55:58;5.72;;;1.60;;
52534;SDS011;38443;53.164;5.802;2022-09-13T11:58:30;3.80;;;1.60;;
52534;SDS011;38443;53.164;5.802;2022-09-13T12:01:01;3.95;;;1.48;;
52534;SDS011;38443;53.164;5.802;2022-09-13T12:04:05;10.38;;;2.95;;
52534;SDS011;38443;53.164;5.802;2022-09-13T12:06:36;4.38;;;1.90;;
52534;SDS011;38443;53.164;5.802;2022-09-13T12:09:14;9.93;;;1.98;;
52534;SDS011;38443;53.164;5.802;2022-09-13T12:11:47;8.50;;;2.85;;
52534;SDS011;38443;53.164;5.802;2022-09-13T12:14:18;4.53;;;1.52;;
52534;SDS011;38443;53.164;5.802;2022-09-13T12:16:56;9.13;;;1.90;;
52534;SDS011;38443;53.164;5.802;2022-09-13T12:19:29;5.57;;;1.80;;
52534;SDS011;38443;53.164;5.802;2022-09-13T12:22:04;6.38;;;2.03;;
52534;SDS011;38443;53.164;5.802;2022-09-13T12:24:37;3.03;;;1.92;;
52534;SDS011;38443;53.164;5.802;2022-09-13T12:29:55;4.25;;;1.48;;
52534;SDS011;38443;53.164;5.802;2022-09-13T12:32:39;8.05;;;2.00;;
52534;SDS011;38443;53.164;5.802;2022-09-13T12:37:46;7.03;;;1.80;;
52534;SDS011;38443;53.164;5.802;2022-09-13T12:40:49;6.40;;;2.53;;
52534;SDS011;38443;53.164;5.802;2022-09-13T12:43:21;6.95;;;2.55;;
52534;SDS011;38443;53.164;5.802;2022-09-13T12:46:23;8.75;;;2.25;;
52534;SDS011;38443;53.164;5.802;2022-09-13T12:49:23;3.97;;;1.63;;
52534;SDS011;38443;53.164;5.802;2022-09-13T12:52:21;10.90;;;2.10;;
52534;SDS011;38443;53.164;5.802;2022-09-13T12:57:27;6.28;;;2.25;;
52534;SDS011;38443;53.164;5.802;2022-09-13T13:00:24;6.63;;;1.73;;
52534;SDS011;38443;53.164;5.802;2022-09-13T13:05:29;5.28;;;1.73;;
52534;SDS011;38443;53.164;5.802;2022-09-13T13:10:43;4.70;;;1.60;;
52534;SDS011;38443;53.164;5.802;2022-09-13T13:18:25;6.50;;;2.10;;
52534;SDS011;38443;53.164;5.802;2022-09-13T13:31:07;5.05;;;1.70;;
52534;SDS011;38443;53.164;5.802;2022-09-13T13:36:42;5.80;;;1.33;;
52534;SDS011;38443;53.164;5.802;2022-09-13T13:41:52;6.20;;;1.92;;
52534;SDS011;38443;53.164;5.802;2022-09-13T14:00:24;3.90;;;1.50;;
52534;SDS011;38443;53.164;5.802;2022-09-13T14:03:04;5.85;;;1.38;;
52534;SDS011;38443;53.164;5.802;2022-09-13T14:05:53;7.03;;;1.50;;
52534;SDS011;38443;53.164;5.802;2022-09-13T14:16:08;4.38;;;1.50;;
52534;SDS011;38443;53.164;5.802;2022-09-13T14:21:46;5.53;;;1.30;;
52534;SDS011;38443;53.164;5.802;2022-09-13T14:27:14;4.63;;;1.75;;
52534;SDS011;38443;53.164;5.802;2022-09-13T14:29:49;7.00;;;1.98;;
52534;SDS011;38443;53.164;5.802;2022-09-13T14:32:28;4.33;;;1.60;;
52534;SDS011;38443;53.164;5.802;2022-09-13T14:35:00;4.28;;;1.58;;
52534;SDS011;38443;53.164;5.802;2022-09-13T14:37:30;5.68;;;1.45;;
52534;SDS011;38443;53.164;5.802;2022-09-13T14:42:46;7.18;;;1.40;;
52534;SDS011;38443;53.164;5.802;2022-09-13T14:45:25;4.20;;;1.50;;
52534;SDS011;38443;53.164;5.802;2022-09-13T14:48:05;7.03;;;2.03;;
52534;SDS011;38443;53.164;5.802;2022-09-13T14:50:38;3.33;;;1.40;;
52534;SDS011;38443;53.164;5.802;2022-09-13T14:53:06;3.55;;;1.50;;
52534;SDS011;38443;53.164;5.802;2022-09-13T14:55:38;4.88;;;1.83;;
52534;SDS011;38443;53.164;5.802;2022-09-13T14:58:12;3.92;;;1.40;;
52534;SDS011;38443;53.164;5.802;2022-09-13T15:00:47;5.47;;;1.42;;
52534;SDS011;38443;53.164;5.802;2022-09-13T15:03:15;6.20;;;1.65;;
52534;SDS011;38443;53.164;5.802;2022-09-13T15:05:48;2.85;;;1.30;;
52534;SDS011;38443;53.164;5.802;2022-09-13T15:08:32;9.38;;;1.98;;
52534;SDS011;38443;53.164;5.802;2022-09-13T15:11:00;4.15;;;1.50;;
52534;SDS011;38443;53.164;5.802;2022-09-13T15:13:30;4.70;;;1.55;;
52534;SDS011;38443;53.164;5.802;2022-09-13T15:15:57;6.10;;;1.85;;
52534;SDS011;38443;53.164;5.802;2022-09-13T15:23:25;3.90;;;1.45;;
52534;SDS011;38443;53.164;5.802;2022-09-13T15:31:07;3.33;;;1.30;;
52534;SDS011;38443;53.164;5.802;2022-09-13T15:33:33;3.08;;;1.40;;
52534;SDS011;38443;53.164;5.802;2022-09-13T15:36:13;3.92;;;1.38;;
52534;SDS011;38443;53.164;5.802;2022-09-13T15:39:01;6.85;;;1.70;;
52534;SDS011;38443;53.164;5.802;2022-09-13T15:41:49;3.67;;;2.25;;
52534;SDS011;38443;53.164;5.802;2022-09-13T15:44:18;3.22;;;1.33;;
52534;SDS011;38443;53.164;5.802;2022-09-13T15:46:45;6.35;;;1.90;;
52534;SDS011;38443;53.164;5.802;2022-09-13T15:49:16;4.43;;;1.50;;
52534;SDS011;38443;53.164;5.802;2022-09-13T15:51:43;7.13;;;2.50;;
52534;SDS011;38443;53.164;5.802;2022-09-13T15:54:10;5.10;;;2.05;;
52534;SDS011;38443;53.164;5.802;2022-09-13T15:56:37;2.22;;;1.35;;
52534;SDS011;38443;53.164;5.802;2022-09-13T15:59:06;5.90;;;1.42;;
52534;SDS011;38443;53.164;5.802;2022-09-13T16:01:32;3.13;;;1.33;;
52534;SDS011;38443;53.164;5.802;2022-09-13T16:03:57;5.90;;;1.80;;
52534;SDS011;38443;53.164;5.802;2022-09-13T16:06:23;4.95;;;2.10;;
52534;SDS011;38443;53.164;5.802;2022-09-13T16:08:48;4.68;;;1.45;;
52534;SDS011;38443;53.164;5.802;2022-09-13T16:11:13;9.13;;;1.95;;
52534;SDS011;38443;53.164;5.802;2022-09-13T16:13:39;5.65;;;1.65;;
52534;SDS011;38443;53.164;5.802;2022-09-13T16:16:04;5.10;;;2.17;;
52534;SDS011;38443;53.164;5.802;2022-09-13T16:18:30;9.13;;;3.75;;
52534;SDS011;38443;53.164;5.802;2022-09-13T16:20:55;6.65;;;2.90;;
52534;SDS011;38443;53.164;5.802;2022-09-13T16:23:21;5.20;;;2.17;;
52534;SDS011;38443;53.164;5.802;2022-09-13T16:25:46;4.90;;;1.63;;
52534;SDS011;38443;53.164;5.802;2022-09-13T16:28:14;2.85;;;1.35;;
52534;SDS011;38443;53.164;5.802;2022-09-13T16:30:43;6.10;;;1.90;;
52534;SDS011;38443;53.164;5.802;2022-09-13T16:33:09;9.70;;;1.83;;
52534;SDS011;38443;53.164;5.802;2022-09-13T16:35:34;4.28;;;1.73;;
52534;SDS011;38443;53.164;5.802;2022-09-13T16:37:59;6.05;;;1.50;;
52534;SDS011;38443;53.164;5.802;2022-09-13T16:40:25;4.22;;;1.45;;
52534;SDS011;38443;53.164;5.802;2022-09-13T16:42:50;5.97;;;1.60;;
52534;SDS011;38443;53.164;5.802;2022-09-13T16:45:16;2.42;;;1.20;;
52534;SDS011;38443;53.164;5.802;2022-09-13T16:47:41;2.70;;;1.25;;
52534;SDS011;38443;53.164;5.802;2022-09-13T16:50:07;4.13;;;2.13;;
52534;SDS011;38443;53.164;5.802;2022-09-13T16:52:33;4.05;;;1.27;;
52534;SDS011;38443;53.164;5.802;2022-09-13T16:54:59;4.30;;;1.70;;
52534;SDS011;38443;53.164;5.802;2022-09-13T16:57:25;2.70;;;1.10;;
52534;SDS011;38443;53.164;5.802;2022-09-13T16:59:51;2.92;;;1.40;;
52534;SDS011;38443;53.164;5.802;2022-09-13T17:02:20;2.47;;;0.88;;
52534;SDS011;38443;53.164;5.802;2022-09-13T17:04:45;2.83;;;1.27;;
52534;SDS011;38443;53.164;5.802;2022-09-13T17:07:11;2.78;;;1.10;;
52534;SDS011;38443;53.164;5.802;2022-09-13T17:09:38;2.55;;;1.30;;
52534;SDS011;38443;53.164;5.802;2022-09-13T17:12:04;3.15;;;1.48;;
52534;SDS011;38443;53.164;5.802;2022-09-13T17:14:34;3.85;;;1.27;;
52534;SDS011;38443;53.164;5.802;2022-09-13T17:17:00;5.45;;;1.13;;
52534;SDS011;38443;53.164;5.802;2022-09-13T17:19:30;8.02;;;1.63;;
52534;SDS011;38443;53.164;5.802;2022-09-13T17:22:00;3.38;;;1.13;;
52534;SDS011;38443;53.164;5.802;2022-09-13T17:24:28;3.65;;;1.38;;
52534;SDS011;38443;53.164;5.802;2022-09-13T17:26:56;3.30;;;1.20;;
52534;SDS011;38443;53.164;5.802;2022-09-13T17:29:22;2.85;;;1.35;;
52534;SDS011;38443;53.164;5.802;2022-09-13T17:31:49;4.93;;;1.40;;
52534;SDS011;38443;53.164;5.802;2022-09-13T17:34:15;2.40;;;1.23;;
52534;SDS011;38443;53.164;5.802;2022-09-13T17:36:41;2.05;;;0.95;;
52534;SDS011;38443;53.164;5.802;2022-09-13T17:39:06;2.92;;;1.20;;
52534;SDS011;38443;53.164;5.802;2022-09-13T17:41:32;2.05;;;1.13;;
52534;SDS011;38443;53.164;5.802;2022-09-13T17:43:58;4.88;;;1.77;;
52534;SDS011;38443;53.164;5.802;2022-09-13T17:46:24;3.95;;;1.40;;
52534;SDS011;38443;53.164;5.802;2022-09-13T17:48:53;3.63;;;1.30;;
52534;SDS011;38443;53.164;5.802;2022-09-13T17:51:24;4.75;;;1.30;;
52534;SDS011;38443;53.164;5.802;2022-09-13T17:53:52;3.53;;;1.27;;
52534;SDS011;38443;53.164;5.802;2022-09-13T17:56:24;2.83;;;1.15;;
52534;SDS011;38443;53.164;5.802;2022-09-13T17:58:54;5.90;;;1.60;;
52534;SDS011;38443;53.164;5.802;2022-09-13T18:01:20;5.40;;;1.92;;
52534;SDS011;38443;53.164;5.802;2022-09-13T18:03:45;8.73;;;1.60;;
52534;SDS011;38443;53.164;5.802;2022-09-13T18:06:11;4.40;;;1.40;;
52534;SDS011;38443;53.164;5.802;2022-09-13T18:08:39;4.75;;;1.60;;